Time;durP1;ratioP1;P1;durP2;ratioP2;P2;SDS_P1;SDS_P2;PMS_P1;PMS_P2;Temp;Humidity;BMP_temperature;BMP_pressure;BME280_temperature;BME280_humidity;BME280_pressure;Samples;Min_cycle;Max_cycle;Signal;HPM_P1;HPM_P2
2022/11/29 00:02:11;;;;;;;42.00;16.10;;;;;;;1.42;100.00;100671.07;105903;1291;61216;-76
2022/11/29 00:04:59;;;;;;;41.00;16.50;;;;;;;1.42;100.00;100672.98;105896;1284;75090;-75
2022/11/29 00:07:46;;;;;;;45.30;17.00;;;;;;;1.41;100.00;100675.08;105912;1292;66601;-76
2022/11/29 00:10:36;;;;;;;46.40;18.60;;;;;;;1.40;100.00;100672.52;105903;1292;72726;-76
2022/11/29 00:13:24;;;;;;;41.20;16.50;;;;;;;1.33;100.00;100676.20;105901;1291;58028;-76
2022/11/29 00:16:11;;;;;;;43.10;17.20;;;;;;;1.31;100.00;100676.61;105737;1295;61609;-76
2022/11/29 00:18:59;;;;;;;42.30;16.20;;;;;;;1.34;100.00;100668.84;105912;1288;73831;-75
2022/11/29 00:21:47;;;;;;;46.00;16.80;;;;;;;1.35;100.00;100669.31;105912;1283;67692;-76
2022/11/29 00:24:35;;;;;;;43.70;17.10;;;;;;;1.35;100.00;100669.51;105891;1292;70951;-76
2022/11/29 00:27:23;;;;;;;40.40;16.00;;;;;;;1.32;100.00;100671.87;105914;1297;58487;-76
2022/11/29 00:30:11;;;;;;;44.90;17.80;;;;;;;1.35;99.96;100670.89;105773;1295;61562;-76
2022/11/29 00:32:59;;;;;;;41.10;15.30;;;;;;;1.32;99.98;100672.21;105918;1292;75032;-76
2022/11/29 00:35:47;;;;;;;44.60;17.70;;;;;;;1.32;99.99;100672.59;105919;1292;67272;-75
2022/11/29 00:38:34;;;;;;;43.90;16.70;;;;;;;1.31;99.94;100677.48;105880;1292;72476;-74
2022/11/29 00:41:22;;;;;;;38.80;15.60;;;;;;;1.31;99.87;100674.86;105883;1285;58688;-74
2022/11/29 00:44:10;;;;;;;42.40;17.40;;;;;;;1.29;99.72;100677.02;105914;1292;60575;-75
2022/11/29 00:47:06;;;;;;;39.00;15.30;;;;;;;1.27;99.68;100671.66;105888;1291;75037;-75
2022/11/29 00:49:53;;;;;;;40.10;15.50;;;;;;;1.28;99.86;100672.33;105909;1292;68186;-74
2022/11/29 00:52:41;;;;;;;40.50;15.40;;;;;;;1.28;99.70;100667.09;105914;1292;70244;-75
2022/11/29 00:55:29;;;;;;;46.80;17.50;;;;;;;1.27;99.78;100663.46;105905;1292;58029;-75
2022/11/29 00:58:18;;;;;;;46.10;17.40;;;;;;;1.28;99.76;100664.66;105890;1291;60112;-74
2022/11/29 01:01:05;;;;;;;33.40;13.10;;;;;;;1.27;99.57;100661.54;105055;1292;1002488;-74
2022/11/29 01:03:53;;;;;;;41.70;15.80;;;;;;;1.28;99.69;100663.41;105911;1285;65607;-74
2022/11/29 01:06:40;;;;;;;40.20;16.70;;;;;;;1.28;99.44;100663.59;105751;1292;73438;-73
2022/11/29 01:09:28;;;;;;;41.80;16.10;;;;;;;1.22;98.94;100657.48;105879;1299;58540;-73
2022/11/29 01:12:16;;;;;;;38.80;14.30;;;;;;;1.25;99.13;100652.86;105907;1292;60282;-74
2022/11/29 01:15:06;;;;;;;39.50;13.80;;;;;;;1.24;99.04;100654.98;105905;1292;72175;-74
2022/11/29 01:17:54;;;;;;;41.30;16.00;;;;;;;1.25;98.94;100653.70;105812;1295;67416;-74
2022/11/29 01:20:42;;;;;;;42.30;16.20;;;;;;;1.27;98.85;100657.51;105888;1292;73820;-75
2022/11/29 01:23:29;;;;;;;41.00;15.10;;;;;;;1.28;98.72;100652.95;105905;1292;58596;-75
2022/11/29 01:26:23;;;;;;;38.50;14.80;;;;;;;1.26;98.43;100652.99;105899;1292;61139;-76
2022/11/29 01:29:11;;;;;;;34.30;13.60;;;;;;;1.23;98.12;100654.47;105729;1288;73838;-75
2022/11/29 01:31:59;;;;;;;38.60;15.00;;;;;;;1.23;98.15;100659.20;105801;1292;68001;-74
2022/11/29 01:34:46;;;;;;;38.60;15.20;;;;;;;1.24;98.10;100658.32;105913;1292;73081;-75
2022/11/29 01:37:34;;;;;;;35.20;14.10;;;;;;;1.25;97.99;100662.12;105929;1292;58080;-75
2022/11/29 01:40:22;;;;;;;36.30;14.40;;;;;;;1.23;97.66;100664.09;105922;1292;60093;-75
2022/11/29 01:43:17;;;;;;;32.30;12.70;;;;;;;1.22;97.27;100666.58;105764;1285;74071;-75
2022/11/29 01:46:05;;;;;;;32.70;13.10;;;;;;;1.18;96.99;100669.98;105902;1290;68663;-75
2022/11/29 01:48:59;;;;;;;40.10;14.90;;;;;;;1.19;97.17;100666.66;105877;1292;72964;-77
2022/11/29 01:51:54;;;;;;;33.00;13.90;;;;;;;1.20;96.90;100665.73;105908;1285;58521;-74
2022/11/29 01:54:47;;;;;;;34.00;15.50;;;;;;;1.20;96.81;100667.49;105809;1295;61668;-74
2022/11/29 01:57:38;;;;;;;34.10;13.70;;;;;;;1.16;96.41;100665.70;105816;1291;72902;-75
2022/11/29 02:00:26;;;;;;;35.00;13.70;;;;;;;1.13;96.31;100664.71;105828;1287;66338;-75
2022/11/29 02:03:17;;;;;;;34.50;13.80;;;;;;;1.12;96.35;100666.83;105890;1291;73776;-75
2022/11/29 02:06:06;;;;;;;35.50;13.80;;;;;;;1.11;96.38;100659.19;105892;1292;58832;-74
2022/11/29 02:08:55;;;;;;;35.10;13.90;;;;;;;1.12;96.51;100664.40;105802;1286;60072;-75
2022/11/29 02:11:53;;;;;;;30.70;13.00;;;;;;;1.10;96.33;100666.20;105895;1285;72777;-75
2022/11/29 02:15:01;;;;;;;36.70;13.50;;;;;;;1.11;96.57;100666.00;105818;1299;67490;-75
2022/11/29 02:18:02;;;;;;;38.30;14.00;;;;;;;1.09;96.53;100669.39;105891;1292;73564;-74
2022/11/29 02:21:15;;;;;;;38.70;15.90;;;;;;;1.09;96.59;100667.81;105791;1292;58509;-74
2022/11/29 02:24:50;;;;;;;34.90;14.20;;;;;;;1.10;96.54;100668.14;105165;1293;1002998;-73
2022/11/29 02:28:08;;;;;;;38.20;15.40;;;;;;;1.14;96.74;100669.60;105133;1303;75036;-74
2022/11/29 02:31:57;;;;;;;38.00;14.50;;;;;;;1.17;96.62;100668.65;105184;1304;67684;-74
2022/11/29 02:35:12;;;;;;;33.20;13.00;;;;;;;1.19;96.68;100676.25;104385;1309;73552;-75
2022/11/29 02:38:29;;;;;;;41.50;15.60;;;;;;;1.17;96.41;100675.27;104382;1308;59591;-75
2022/11/29 02:41:31;;;;;;;41.90;16.30;;;;;;;1.14;96.96;100670.63;103793;1315;61247;-74
2022/11/29 02:44:27;;;;;;;46.30;17.90;;;;;;;1.15;97.20;100671.14;103827;1321;73558;-74
2022/11/29 02:47:45;;;;;;;38.70;15.90;;;;;;;1.14;96.99;100674.33;103813;1316;68127;-76
2022/11/29 02:50:54;;;;;;;40.50;15.80;;;;;;;1.14;96.87;100673.27;103832;1315;72889;-74
2022/11/29 02:54:10;;;;;;;40.50;15.60;;;;;;;1.11;96.44;100677.54;103837;1315;58107;-76
2022/11/29 02:57:36;;;;;;;41.50;15.60;;;;;;;1.11;96.56;100678.96;103780;1315;61184;-76
2022/11/29 03:00:23;;;;;;;43.60;14.80;;;;;;;1.08;95.70;100682.19;103826;1315;72821;-74
2022/11/29 03:03:22;;;;;;;35.50;14.10;;;;;;;1.07;95.55;100685.37;104568;1305;67933;-75
2022/11/29 03:07:24;;;;;;;32.80;12.50;;;;;;;1.06;95.34;100691.17;104451;1315;73670;-75
2022/11/29 03:10:49;;;;;;;32.60;13.10;;;;;;;1.07;95.41;100689.54;103862;1315;59678;-75
2022/11/29 03:14:22;;;;;;;37.60;14.40;;;;;;;1.09;95.52;100685.30;104452;1307;60111;-75
2022/11/29 03:17:31;;;;;;;38.40;14.10;;;;;;;1.08;95.23;100686.38;103716;1301;1002429;-74
2022/11/29 03:20:54;;;;;;;39.60;12.90;;;;;;;1.10;95.51;100683.00;105201;1301;68712;-75
2022/11/29 03:23:48;;;;;;;34.00;14.20;;;;;;;1.09;94.85;100681.09;105209;1301;73458;-74
2022/11/29 03:26:50;;;;;;;32.90;12.80;;;;;;;1.09;94.60;100687.02;105088;1309;58113;-74
2022/11/29 03:29:58;;;;;;;31.00;13.10;;;;;;;1.10;94.71;100689.45;105244;1300;61098;-74
2022/11/29 03:33:00;;;;;;;30.90;12.20;;;;;;;1.07;94.26;100686.39;105235;1300;74958;-74
2022/11/29 03:36:18;;;;;;;35.60;12.70;;;;;;;1.06;94.28;100689.41;105233;1300;66767;-74
2022/11/29 03:39:16;;;;;;;30.20;12.40;;;;;;;1.09;94.37;100686.16;105235;1300;71494;-74
2022/11/29 03:42:12;;;;;;;32.00;12.50;;;;;;;1.08;93.33;100693.38;105212;1299;58204;-76
2022/11/29 03:45:28;;;;;;;30.20;13.10;;;;;;;1.03;92.40;100692.11;105151;1304;60220;-75
2022/11/29 03:48:40;;;;;;;27.50;11.60;;;;;;;0.99;92.37;100692.58;105800;1284;74795;-75
2022/11/29 03:52:01;;;;;;;27.90;11.00;;;;;;;0.95;91.97;100694.09;105836;1295;68885;-76
2022/11/29 03:55:07;;;;;;;26.70;10.70;;;;;;;0.90;90.64;100700.15;105826;1296;73724;-76
2022/11/29 03:58:16;;;;;;;28.20;10.30;;;;;;;0.89;91.17;100699.48;105903;1300;58001;-74
2022/11/29 04:01:28;;;;;;;28.90;11.30;;;;;;;0.88;91.57;100700.73;105818;1295;60053;-74
2022/11/29 04:04:47;;;;;;;26.20;11.10;;;;;;;0.91;91.84;100706.78;105906;1292;73545;-77
2022/11/29 04:07:44;;;;;;;26.30;10.90;;;;;;;0.91;91.40;100707.30;105190;1284;1002989;-75
2022/11/29 04:11:01;;;;;;;26.20;10.10;;;;;;;0.89;90.48;100716.25;105877;1292;73523;-75
2022/11/29 04:14:35;;;;;;;23.70;10.30;;;;;;;0.88;90.76;100711.39;105904;1292;57999;-75
2022/11/29 04:17:51;;;;;;;25.20;9.80;;;;;;;0.85;90.89;100712.70;105809;1292;61280;-76
2022/11/29 04:21:04;;;;;;;26.60;10.80;;;;;;;0.80;90.53;100715.64;105898;1292;73323;-74
2022/11/29 04:24:08;;;;;;;23.50;10.10;;;;;;;0.80;90.88;100716.84;105899;1286;68655;-74
2022/11/29 04:27:29;;;;;;;24.50;10.00;;;;;;;0.81;90.86;100711.75;105812;1295;72398;-74
2022/11/29 04:30:23;;;;;;;23.00;10.60;;;;;;;0.79;89.92;100717.73;105813;1293;57931;-73
2022/11/29 04:33:59;;;;;;;26.00;9.80;;;;;;;0.77;90.14;100721.82;105695;1298;58881;-74
2022/11/29 04:37:23;;;;;;;23.80;10.00;;;;;;;0.79;90.74;100727.02;105165;1292;1002977;-74
2022/11/29 04:40:43;;;;;;;26.10;9.30;;;;;;;0.81;90.61;100729.40;105817;1288;67501;-75
2022/11/29 04:44:05;;;;;;;19.60;8.40;;;;;;;0.77;88.60;100733.50;105810;1294;72264;-74
2022/11/29 04:47:01;;;;;;;23.80;9.50;;;;;;;0.69;87.49;100732.34;105930;1292;58056;-76
2022/11/29 04:50:26;;;;;;;20.50;8.00;;;;;;;0.67;88.53;100733.43;105787;1295;58890;-76
2022/11/29 04:54:05;;;;;;;25.00;9.00;;;;;;;0.66;88.85;100742.70;105745;1295;73836;-74
2022/11/29 04:57:41;;;;;;;21.50;8.80;;;;;;;0.66;88.75;100742.52;105789;1292;66395;-78
2022/11/29 05:00:33;;;;;;;20.70;8.60;;;;;;;0.62;88.57;100742.28;105808;1283;73668;-74
2022/11/29 05:03:37;;;;;;;22.80;9.90;;;;;;;0.62;88.96;100743.86;105930;1291;57975;-77
2022/11/29 05:06:42;;;;;;;25.20;10.80;;;;;;;0.58;87.88;100748.69;105768;1295;60266;-76
2022/11/29 05:09:48;;;;;;;24.00;10.30;;;;;;;0.53;87.67;100755.43;105734;1295;74638;-75
2022/11/29 05:12:44;;;;;;;23.80;9.40;;;;;;;0.49;88.02;100762.52;105803;1294;68646;-75
2022/11/29 05:16:13;;;;;;;26.20;10.70;;;;;;;0.48;87.89;100762.20;105908;1289;73661;-76
2022/11/29 05:19:44;;;;;;;22.90;9.70;;;;;;;0.44;87.49;100755.15;105833;1292;58092;-75
2022/11/29 05:22:56;;;;;;;24.20;10.80;;;;;;;0.42;87.44;100760.96;105901;1291;61056;-76
2022/11/29 05:26:00;;;;;;;25.30;9.50;;;;;;;0.41;87.45;100759.77;105884;1292;74151;-76
2022/11/29 05:29:06;;;;;;;22.90;9.50;;;;;;;0.43;87.26;100761.63;105731;1293;67966;-76
2022/11/29 05:32:25;;;;;;;21.40;10.10;;;;;;;0.43;86.95;100766.70;105869;1292;73712;-77
2022/11/29 05:35:52;;;;;;;21.60;9.10;;;;;;;0.39;86.41;100767.83;105870;1292;58103;-76
2022/11/29 05:38:49;;;;;;;19.80;9.30;;;;;;;0.39;86.42;100766.61;105883;1292;60201;-76
2022/11/29 05:42:14;;;;;;;21.10;8.60;;;;;;;0.40;86.47;100767.65;105905;1286;73887;-77
2022/11/29 05:45:21;;;;;;;21.40;9.20;;;;;;;0.38;86.22;100769.61;105874;1285;67701;-76
2022/11/29 05:48:36;;;;;;;22.10;9.70;;;;;;;0.35;85.63;100773.88;105591;1285;320924;-77
2022/11/29 05:52:01;;;;;;;22.50;10.20;;;;;;;0.37;86.36;100775.92;106019;1285;58226;-81
2022/11/29 05:54:54;;;;;;;24.00;10.50;;;;;;;0.33;86.10;100773.20;105828;1292;60050;-78
2022/11/29 05:58:27;;;;;;;21.10;10.20;;;;;;;0.32;86.48;100769.21;105896;1292;72503;-77
2022/11/29 06:01:31;;;;;;;22.70;9.50;;;;;;;0.33;86.35;100770.60;105878;1293;66306;-78
2022/11/29 06:04:28;;;;;;;20.10;9.10;;;;;;;0.31;86.54;100775.35;105764;1294;73492;-77
2022/11/29 06:07:24;;;;;;;24.80;11.50;;;;;;;0.27;86.77;100784.00;105797;1292;57982;-78
2022/11/29 06:10:17;;;;;;;23.50;11.40;;;;;;;0.24;87.19;100783.04;105807;1292;58995;-77
2022/11/29 06:13:57;;;;;;;26.40;11.50;;;;;;;0.25;87.65;100787.38;105885;1292;73768;-76
2022/11/29 06:17:02;;;;;;;21.00;9.00;;;;;;;0.27;87.96;100788.55;105831;1285;66771;-78
2022/11/29 06:20:11;;;;;;;26.20;12.00;;;;;;;0.29;88.10;100790.23;105119;1290;1002361;-75
2022/11/29 06:23:33;;;;;;;25.40;10.80;;;;;;;0.29;88.49;100793.55;105835;1295;58475;-76
2022/11/29 06:26:46;;;;;;;27.20;12.50;;;;;;;0.28;88.86;100794.80;105859;1296;60284;-76
2022/11/29 06:29:56;;;;;;;30.80;12.40;;;;;;;0.31;88.98;100798.75;105842;1292;75514;-78
2022/11/29 06:32:49;;;;;;;27.40;11.40;;;;;;;0.35;89.11;100802.31;105745;1289;67570;-78
2022/11/29 06:35:50;;;;;;;29.50;12.20;;;;;;;0.38;88.93;100803.67;105856;1297;74295;-79
2022/11/29 06:38:38;;;;;;;26.10;12.20;;;;;;;0.40;89.15;100805.34;105746;1295;58035;-77
2022/11/29 06:41:26;;;;;;;26.10;12.30;;;;;;;0.44;88.96;100807.36;105870;1291;58933;-79
2022/11/29 06:44:14;;;;;;;26.20;10.90;;;;;;;0.42;88.91;100812.80;105854;1290;74731;-77
2022/11/29 06:47:21;;;;;;;26.80;9.70;;;;;;;0.45;89.02;100812.39;105014;1292;1003117;-77
2022/11/29 06:50:20;;;;;;;26.00;13.00;;;;;;;0.44;88.87;100815.03;105812;1292;72588;-75
2022/11/29 06:53:42;;;;;;;27.60;12.00;;;;;;;0.43;88.79;100809.48;105887;1291;58725;-78
2022/11/29 06:56:47;;;;;;;29.40;14.10;;;;;;;0.40;88.72;100809.71;105883;1289;61115;-79
2022/11/29 07:00:15;;;;;;;27.70;12.60;;;;;;;0.42;88.96;100816.81;105893;1292;73814;-79
2022/11/29 07:03:21;;;;;;;25.90;11.80;;;;;;;0.45;88.68;100816.58;105797;1292;67788;-77
2022/11/29 07:06:25;;;;;;;23.20;10.50;;;;;;;0.46;89.11;100823.70;105139;1292;1003041;-77
2022/11/29 07:09:18;;;;;;;31.30;12.70;;;;;;;0.47;88.78;100825.44;105773;1300;58425;-78
2022/11/29 07:12:07;;;;;;;30.40;13.00;;;;;;;0.45;88.82;100828.62;105068;1295;1002846;-77
2022/11/29 07:14:56;;;;;;;31.60;13.40;;;;;;;0.49;88.88;100830.28;105792;1292;73860;-76
2022/11/29 07:17:53;;;;;;;30.20;12.40;;;;;;;0.51;88.80;100835.31;105782;1292;67701;-75
2022/11/29 07:21:24;;;;;;;29.60;12.90;;;;;;;0.47;88.46;100836.77;105888;1292;72688;-76
2022/11/29 07:24:18;;;;;;;23.80;11.60;;;;;;;0.44;88.41;100838.44;105901;1292;58092;-76
2022/11/29 07:27:33;;;;;;;27.60;11.60;;;;;;;0.42;88.94;100840.94;105870;1293;60089;-75
2022/11/29 07:30:34;;;;;;;29.80;14.00;;;;;;;0.40;88.90;100836.08;105894;1291;73811;-78
2022/11/29 07:33:52;;;;;;;28.80;12.20;;;;;;;0.40;89.05;100838.52;105892;1292;67936;-76
2022/11/29 07:36:57;;;;;;;31.00;12.90;;;;;;;0.40;89.04;100841.67;105036;1294;1003065;-75
2022/11/29 07:40:25;;;;;;;29.60;13.00;;;;;;;0.40;89.13;100838.02;105875;1292;58290;-78
2022/11/29 07:43:40;;;;;;;30.80;13.20;;;;;;;0.41;89.45;100837.28;105171;1292;1002823;-79
2022/11/29 07:46:28;;;;;;;26.40;12.30;;;;;;;0.43;89.17;100840.71;105787;1295;72657;-80
2022/11/29 07:49:16;;;;;;;29.20;12.90;;;;;;;0.42;89.20;100841.30;105786;1292;67829;-81
2022/11/29 07:52:03;;;;;;;28.50;12.60;;;;;;;0.39;89.14;100847.27;105856;1295;73619;-75
2022/11/29 07:54:51;;;;;;;25.70;11.40;;;;;;;0.38;89.26;100849.04;104966;1294;1002892;-76
2022/11/29 07:57:38;;;;;;;32.60;14.30;;;;;;;0.38;89.40;100847.47;105116;1299;1002363;-73
2022/11/29 08:00:26;;;;;;;25.60;11.00;;;;;;;0.36;89.38;100848.56;105833;1291;74677;-74
2022/11/29 08:03:14;;;;;;;30.80;13.80;;;;;;;0.31;89.50;100841.88;105560;1298;67611;-76
2022/11/29 08:06:02;;;;;;;27.00;12.20;;;;;;;0.32;89.57;100841.14;105850;1290;72738;-73
2022/11/29 08:08:50;;;;;;;25.10;12.00;;;;;;;0.32;90.11;100840.80;105853;1292;58057;-76
2022/11/29 08:11:38;;;;;;;25.50;11.30;;;;;;;0.34;90.12;100840.05;105855;1302;58184;-76
2022/11/29 08:14:32;;;;;;;29.20;12.40;;;;;;;0.38;89.97;100842.94;105864;1292;74842;-77
2022/11/29 08:17:19;;;;;;;31.70;12.90;;;;;;;0.40;90.06;100840.45;105834;1290;68788;-74
2022/11/29 08:20:09;;;;;;;26.30;11.90;;;;;;;0.45;90.16;100844.88;105831;1291;71431;-75
2022/11/29 08:22:58;;;;;;;31.70;13.90;;;;;;;0.46;89.69;100843.43;105848;1292;58475;-75
2022/11/29 08:25:46;;;;;;;29.60;13.80;;;;;;;0.48;89.62;100846.35;105110;1287;1002895;-75
2022/11/29 08:28:33;;;;;;;25.30;12.80;;;;;;;0.48;89.45;100844.80;105813;1291;74579;-74
2022/11/29 08:31:21;;;;;;;29.70;13.50;;;;;;;0.48;89.38;100844.61;105839;1292;66388;-72
2022/11/29 08:34:09;;;;;;;29.30;12.60;;;;;;;0.49;89.56;100842.16;105819;1292;71279;-75
2022/11/29 08:36:57;;;;;;;30.30;14.00;;;;;;;0.49;89.76;100846.16;105824;1292;59974;-75
2022/11/29 08:39:44;;;;;;;33.10;14.10;;;;;;;0.48;89.64;100845.30;105834;1293;60489;-74
2022/11/29 08:42:32;;;;;;;30.60;14.30;;;;;;;0.48;89.80;100843.22;105822;1295;72230;-75
2022/11/29 08:45:19;;;;;;;28.60;13.70;;;;;;;0.53;89.97;100843.98;105843;1290;68551;-74
2022/11/29 08:48:07;;;;;;;29.90;14.80;;;;;;;0.52;89.60;100849.59;105098;1295;1002819;-75
2022/11/29 08:50:55;;;;;;;29.10;12.70;;;;;;;0.54;89.83;100843.27;105822;1279;57998;-75
2022/11/29 08:53:50;;;;;;;25.70;12.80;;;;;;;0.53;89.50;100840.31;105832;1295;59062;-75
2022/11/29 08:56:38;;;;;;;34.40;15.00;;;;;;;0.51;89.69;100835.30;105816;1298;74749;-73
2022/11/29 08:59:46;;;;;;;28.80;13.00;;;;;;;0.50;89.86;100837.08;105803;1287;68945;-72
2022/11/29 09:02:35;;;;;;;31.90;14.50;;;;;;;0.51;89.96;100838.09;105846;1289;72562;-78
2022/11/29 09:05:23;;;;;;;30.10;13.00;;;;;;;0.54;89.78;100836.29;105709;1296;59157;-77
2022/11/29 09:08:10;;;;;;;26.80;11.90;;;;;;;0.57;89.63;100842.31;105737;1295;58215;-76
2022/11/29 09:10:58;;;;;;;31.10;13.10;;;;;;;0.61;89.74;100838.90;105863;1295;73618;-76
2022/11/29 09:13:49;;;;;;;28.10;13.00;;;;;;;0.62;89.50;100839.75;105837;1291;67088;-77
2022/11/29 09:16:37;;;;;;;27.90;11.50;;;;;;;0.63;89.54;100837.11;105086;1295;1002413;-75
2022/11/29 09:19:25;;;;;;;29.10;13.00;;;;;;;0.62;89.30;100839.23;105821;1292;58512;-77
2022/11/29 09:22:13;;;;;;;35.50;15.00;;;;;;;0.62;89.25;100839.73;105815;1300;60279;-76
2022/11/29 09:25:00;;;;;;;33.20;15.80;;;;;;;0.64;89.32;100837.42;105886;1298;72492;-77
2022/11/29 09:27:48;;;;;;;28.20;12.00;;;;;;;0.66;89.28;100836.32;105847;1295;68304;-77
2022/11/29 09:30:36;;;;;;;28.10;13.40;;;;;;;0.67;89.36;100836.64;105848;1291;73659;-74
2022/11/29 09:33:24;;;;;;;36.20;15.80;;;;;;;0.69;89.13;100842.55;105866;1281;58109;-79
2022/11/29 09:36:12;;;;;;;34.10;15.50;;;;;;;0.66;89.06;100839.81;105897;1293;60008;-77
2022/11/29 09:39:03;;;;;;;33.60;15.30;;;;;;;0.67;89.12;100840.34;105851;1292;72032;-73
2022/11/29 09:42:22;;;;;;;34.60;15.90;;;;;;;0.70;89.24;100838.86;105683;1301;68699;-75
2022/11/29 09:45:18;;;;;;;27.90;13.50;;;;;;;0.76;89.19;100838.01;105732;1284;71949;-74
2022/11/29 09:48:23;;;;;;;37.10;16.00;;;;;;;0.78;88.96;100837.77;105777;1285;58045;-74
2022/11/29 09:51:26;;;;;;;36.40;15.80;;;;;;;0.81;88.90;100837.20;105836;1288;61170;-74
2022/11/29 09:54:39;;;;;;;34.70;15.30;;;;;;;0.82;88.62;100834.54;104938;1293;1002524;-72
2022/11/29 09:57:30;;;;;;;40.20;15.90;;;;;;;0.83;88.75;100834.00;105836;1287;69042;-70
2022/11/29 10:00:19;;;;;;;38.60;16.10;;;;;;;0.82;88.20;100834.73;105761;1295;72465;-72
2022/11/29 10:03:24;;;;;;;35.70;16.30;;;;;;;0.82;88.37;100832.09;105773;1295;58323;-77
2022/11/29 10:06:39;;;;;;;32.40;14.40;;;;;;;0.84;88.49;100837.47;105702;1298;60327;-71
2022/11/29 10:09:29;;;;;;;35.80;15.50;;;;;;;0.80;88.06;100845.27;105908;1284;73852;-72
2022/11/29 10:12:45;;;;;;;39.70;17.20;;;;;;;0.78;88.34;100839.71;105885;1291;68666;-74
2022/11/29 10:15:58;;;;;;;34.10;15.90;;;;;;;0.78;88.23;100841.63;105838;1291;71123;-76
2022/11/29 10:19:00;;;;;;;36.40;16.30;;;;;;;0.71;88.09;100840.23;105857;1288;58117;-74
2022/11/29 10:22:00;;;;;;;41.20;18.60;;;;;;;0.71;88.42;100843.21;105669;1290;61394;-72
2022/11/29 10:24:53;;;;;;;36.60;16.40;;;;;;;0.67;88.29;100844.18;105721;1293;72419;-71
2022/11/29 10:27:41;;;;;;;37.40;16.30;;;;;;;0.58;88.51;100848.05;105723;1292;67563;-76
2022/11/29 10:30:34;;;;;;;38.20;16.50;;;;;;;0.58;88.77;100843.33;105819;1295;72516;-73
2022/11/29 10:33:28;;;;;;;38.20;17.20;;;;;;;0.60;88.62;100842.77;105663;1298;58796;-72
2022/11/29 10:36:33;;;;;;;34.80;14.70;;;;;;;0.59;88.82;100839.48;105693;1291;58146;-69
2022/11/29 10:39:27;;;;;;;37.80;15.30;;;;;;;0.57;88.93;100838.64;105735;1294;71575;-75
2022/11/29 10:45:44;;;;;;;42.20;19.30;;;;;;;0.58;88.94;100842.83;105725;1285;73768;-79
2022/11/29 10:48:33;;;;;;;38.40;17.00;;;;;;;0.58;88.75;100844.03;105725;1291;58015;-80
2022/11/29 10:51:21;;;;;;;38.80;18.40;;;;;;;0.60;88.86;100842.41;105737;1293;58895;-77
2022/11/29 10:54:41;;;;;;;35.80;14.80;;;;;;;0.64;89.08;100847.04;105869;1290;73659;-76
2022/11/29 10:57:28;;;;;;;39.90;18.10;;;;;;;0.63;88.98;100848.65;105669;1292;66344;-75
2022/11/29 11:00:16;;;;;;;46.30;17.60;;;;;;;0.62;88.76;100847.43;105838;1299;73921;-77
2022/11/29 11:03:43;;;;;;;39.80;16.30;;;;;;;0.62;88.92;100847.10;105665;1294;59662;-78
2022/11/29 11:06:51;;;;;;;36.60;15.50;;;;;;;0.66;89.04;100849.43;105832;1286;61117;-75
2022/11/29 11:09:48;;;;;;;34.30;14.30;;;;;;;0.73;89.12;100846.47;105720;1295;73178;-79
2022/11/29 11:12:36;;;;;;;38.00;15.70;;;;;;;0.76;88.80;100850.42;105722;1295;66194;-71
2022/11/29 11:15:23;;;;;;;37.20;15.10;;;;;;;0.76;88.47;100850.77;105877;1292;73907;-74
2022/11/29 11:18:22;;;;;;;42.20;17.70;;;;;;;0.76;88.43;100853.41;105824;1292;59744;-74
2022/11/29 11:21:13;;;;;;;38.50;17.60;;;;;;;0.79;88.63;100851.39;105095;1293;1002453;-77
2022/11/29 11:24:02;;;;;;;38.50;16.20;;;;;;;0.83;88.57;100845.36;105755;1291;73683;-76
2022/11/29 11:26:49;;;;;;;40.70;17.20;;;;;;;0.88;88.45;100848.54;105711;1295;68709;-74
2022/11/29 11:29:42;;;;;;;41.90;17.70;;;;;;;0.91;88.29;100846.73;105851;1298;72854;-76
2022/11/29 11:32:30;;;;;;;39.30;17.80;;;;;;;0.92;88.07;100851.07;105700;1295;58063;-72
2022/11/29 11:35:23;;;;;;;45.90;18.40;;;;;;;0.90;87.95;100845.89;105767;1284;61208;-75
2022/11/29 11:38:16;;;;;;;39.70;16.40;;;;;;;0.84;87.79;100847.09;105733;1295;72265;-79
2022/11/29 11:44:44;;;;;;;38.70;17.30;;;;;;;0.77;88.48;100850.40;105886;1276;72750;-74
2022/11/29 11:47:47;;;;;;;39.90;16.40;;;;;;;0.78;88.76;100850.91;105753;1293;58413;-77
2022/11/29 11:50:44;;;;;;;34.00;14.80;;;;;;;0.81;88.89;100849.94;105803;1292;61396;-73
2022/11/29 11:53:36;;;;;;;42.70;17.80;;;;;;;0.80;88.61;100847.52;105768;1291;73767;-71
2022/11/29 11:56:33;;;;;;;40.90;17.10;;;;;;;0.80;88.72;100845.25;105755;1292;66219;-74
2022/11/29 11:59:25;;;;;;;41.50;18.20;;;;;;;0.80;88.68;100846.48;105747;1295;73466;-74
2022/11/29 12:02:32;;;;;;;37.60;17.80;;;;;;;0.79;88.79;100848.95;105719;1301;58051;-75
2022/11/29 12:05:19;;;;;;;42.90;20.00;;;;;;;0.78;88.83;100851.07;105842;1291;58666;-74
2022/11/29 12:08:11;;;;;;;49.70;18.40;;;;;;;0.76;88.83;100851.66;105782;1288;73483;-77
2022/11/29 12:11:04;;;;;;;39.00;18.30;;;;;;;0.79;89.21;100852.95;105045;1293;1003126;-76
2022/11/29 12:13:58;;;;;;;38.10;17.90;;;;;;;0.84;89.20;100854.77;105755;1295;71058;-74
2022/11/29 12:16:49;;;;;;;39.10;18.00;;;;;;;0.87;88.82;100858.87;105862;1295;58326;-76
2022/11/29 12:19:56;;;;;;;39.40;15.90;;;;;;;0.85;88.40;100856.13;105742;1294;58710;-74
2022/11/29 12:23:11;;;;;;;35.50;15.50;;;;;;;0.88;88.76;100851.02;105853;1291;73805;-73
2022/11/29 12:26:10;;;;;;;40.20;16.30;;;;;;;0.86;88.63;100855.25;105837;1295;69251;-72
2022/11/29 12:29:17;;;;;;;38.50;16.10;;;;;;;0.81;88.65;100853.25;105730;1295;72333;-74
2022/11/29 12:32:36;;;;;;;40.10;16.70;;;;;;;0.83;88.87;100857.41;105636;1292;58065;-75
2022/11/29 12:36:02;;;;;;;40.60;17.00;;;;;;;0.88;88.88;100856.24;105886;1284;59140;-75
2022/11/29 12:39:02;;;;;;;35.00;15.10;;;;;;;0.90;88.71;100859.17;105888;1284;74195;-76
2022/11/29 12:42:13;;;;;;;37.60;14.90;;;;;;;0.84;88.58;100854.59;105783;1295;68662;-75
2022/11/29 12:45:31;;;;;;;38.10;16.20;;;;;;;0.84;88.96;100856.87;105895;1292;70817;-74
2022/11/29 12:48:48;;;;;;;36.00;14.60;;;;;;;0.82;88.85;100864.08;105867;1286;58601;-73
2022/11/29 12:51:56;;;;;;;33.90;15.20;;;;;;;0.80;89.12;100860.79;105903;1292;59050;-74
2022/11/29 12:55:04;;;;;;;44.50;17.60;;;;;;;0.78;88.93;100868.71;105802;1293;74067;-74
2022/11/29 12:58:17;;;;;;;43.10;17.50;;;;;;;0.78;89.17;100869.74;105783;1292;68811;-75
2022/11/29 13:01:43;;;;;;;39.70;16.90;;;;;;;0.77;89.05;100873.61;105898;1292;70698;-73
2022/11/29 13:04:50;;;;;;;40.10;16.20;;;;;;;0.73;89.02;100874.59;105874;1291;58861;-76
2022/11/29 13:08:35;;;;;;;39.20;17.10;;;;;;;0.68;89.43;100869.47;105711;1298;60061;-74
2022/11/29 13:11:33;;;;;;;39.00;16.10;;;;;;;0.68;89.46;100875.77;105694;1296;73441;-73
2022/11/29 13:15:14;;;;;;;35.30;17.40;;;;;;;0.70;89.61;100877.47;105722;1292;66740;-73
2022/11/29 13:18:20;;;;;;;38.60;16.40;;;;;;;0.71;89.72;100879.02;105044;1301;71338;-74
2022/11/29 13:21:46;;;;;;;41.00;18.40;;;;;;;0.75;89.74;100880.49;105113;1302;58517;-75
2022/11/29 13:24:45;;;;;;;41.10;17.60;;;;;;;0.75;89.74;100884.16;104559;1306;61422;-75
2022/11/29 13:27:45;;;;;;;37.20;16.40;;;;;;;0.75;89.59;100887.30;104523;1306;73654;-75
2022/11/29 13:30:34;;;;;;;39.70;16.60;;;;;;;0.77;89.71;100889.71;104442;1314;67579;-74
2022/11/29 13:33:41;;;;;;;37.90;17.00;;;;;;;0.81;89.86;100890.30;104580;1307;71024;-73
2022/11/29 13:36:47;;;;;;;43.90;17.70;;;;;;;0.81;89.45;100886.64;104562;1307;58504;-74
2022/11/29 13:40:06;;;;;;;42.50;18.40;;;;;;;0.79;89.34;100886.32;104563;1309;59464;-75
2022/11/29 13:43:19;;;;;;;39.50;16.90;;;;;;;0.77;89.75;100888.65;104541;1308;71632;-75
2022/11/29 13:46:34;;;;;;;39.20;17.40;;;;;;;0.74;89.67;100886.64;104525;1306;68261;-75
2022/11/29 13:49:51;;;;;;;41.90;16.80;;;;;;;0.75;89.88;100889.40;104543;1308;71249;-77
2022/11/29 13:52:46;;;;;;;37.00;16.30;;;;;;;0.74;89.86;100890.98;104518;1308;58036;-78